createdAt,value
2018-03-21T00:01:48.459Z,29.15
2018-03-21T00:04:17.924Z,29.81
2018-03-21T00:06:47.020Z,27.56
2018-03-21T00:09:15.711Z,28.68
2018-03-21T00:11:44.353Z,29.34
2018-03-21T00:14:13.321Z,29.95
2018-03-21T00:16:43.712Z,30.48
2018-03-21T00:19:12.335Z,31.68
2018-03-21T00:21:41.802Z,30.31
2018-03-21T00:24:10.591Z,30.27
2018-03-21T00:26:39.236Z,30.19
2018-03-21T00:29:07.962Z,30.84
2018-03-21T00:31:36.648Z,31.85
2018-03-21T00:34:05.335Z,33.43
2018-03-21T00:36:34.120Z,34.25
2018-03-21T00:39:02.805Z,31.71
2018-03-21T00:41:31.447Z,30.05
2018-03-21T00:44:00.176Z,29.87
2018-03-21T00:46:28.863Z,29.67
2018-03-21T00:48:57.440Z,34.62
2018-03-21T00:51:26.193Z,32.06
2018-03-21T00:53:54.920Z,29.88
2018-03-21T00:56:23.465Z,29.92
2018-03-21T00:58:52.193Z,28.66
2018-03-21T01:01:21.690Z,28.89
2018-03-21T01:03:50.336Z,29.62
2018-03-21T01:06:19.062Z,29.43
2018-03-21T01:08:47.747Z,29.31
2018-03-21T01:11:16.433Z,29.81
2018-03-21T01:13:45.228Z,29.11
2018-03-21T01:16:13.894Z,29.07
2018-03-21T01:18:42.538Z,29.93
2018-03-21T01:21:12.202Z,30.42
2018-03-21T01:23:40.885Z,31.37
2018-03-21T01:26:09.579Z,32.14
2018-03-21T01:28:38.313Z,30.78
2018-03-21T01:31:07.763Z,29.74
2018-03-21T01:33:36.400Z,30.92
2018-03-21T01:36:05.139Z,29.45
2018-03-21T01:38:33.882Z,29.19
2018-03-21T01:41:02.615Z,31.12
2018-03-21T01:43:31.542Z,35.16
2018-03-21T01:46:01.013Z,34.54
2018-03-21T01:48:29.708Z,34.68
2018-03-21T01:50:59.093Z,32.08
2018-03-21T01:53:27.778Z,30.69
2018-03-21T01:55:56.464Z,31.08
2018-03-21T01:58:25.567Z,30.49
2018-03-21T02:00:54.253Z,29.45
2018-03-21T02:03:22.829Z,30.14
2018-03-21T02:05:52.479Z,30.32
2018-03-21T02:08:22.154Z,32.08
2018-03-21T02:10:50.791Z,34.80
2018-03-21T02:13:20.286Z,33.33
2018-03-21T02:15:49.637Z,32.75
2018-03-21T02:18:18.225Z,30.63
2018-03-21T02:20:47.316Z,30.01
2018-03-21T02:23:15.957Z,30.09
2018-03-21T02:25:44.687Z,29.29
2018-03-21T02:28:13.482Z,35.66
2018-03-21T02:30:42.169Z,33.33
2018-03-21T02:33:10.802Z,33.59
2018-03-21T02:35:40.768Z,32.26
2018-03-21T02:38:09.411Z,32.16
2018-03-21T02:40:38.140Z,32.75
2018-03-21T02:43:07.134Z,34.72
2018-03-21T02:45:35.711Z,35.16
2018-03-21T02:48:04.434Z,33.63
2018-03-21T02:50:33.905Z,36.99
2018-03-21T02:53:02.596Z,34.10
2018-03-21T02:55:31.241Z,34.71
2018-03-21T02:58:00.010Z,36.09
2018-03-21T03:00:28.746Z,35.56
2018-03-21T03:02:57.434Z,33.61
2018-03-21T03:05:26.229Z,35.65
2018-03-21T03:07:54.905Z,33.44
2018-03-21T03:10:23.599Z,37.54
2018-03-21T03:12:52.385Z,37.01
2018-03-21T03:15:20.970Z,34.37
2018-03-21T03:17:49.599Z,32.71
2018-03-21T03:20:19.319Z,32.71
2018-03-21T03:22:48.048Z,34.64
2018-03-21T03:25:16.744Z,34.21
2018-03-21T03:27:45.825Z,34.66
2018-03-21T03:30:14.513Z,31.69
2018-03-21T03:32:43.160Z,32.33
2018-03-21T03:35:12.026Z,33.88
2018-03-21T03:37:41.491Z,31.09
2018-03-21T03:40:10.176Z,31.39
2018-03-21T03:42:38.775Z,31.19
2018-03-21T03:45:07.449Z,34.40
2018-03-21T03:47:36.136Z,34.65
2018-03-21T03:50:04.920Z,30.80
2018-03-21T03:52:33.605Z,30.49
2018-03-21T03:55:02.271Z,30.24
2018-03-21T03:57:31.035Z,29.43
2018-03-21T04:00:00.486Z,29.48
2018-03-21T04:02:29.173Z,31.04
2018-03-21T04:04:57.868Z,29.76
2018-03-21T04:07:26.643Z,30.50
2018-03-21T04:09:55.428Z,33.08
2018-03-21T04:12:24.123Z,31.64
2018-03-21T04:14:52.762Z,31.32
2018-03-21T04:17:21.495Z,31.43
2018-03-21T04:19:50.488Z,32.01
2018-03-21T04:22:19.273Z,34.32
2018-03-21T04:24:47.825Z,32.92
2018-03-21T04:27:16.705Z,32.60
2018-03-21T04:29:45.429Z,33.75
2018-03-21T04:32:14.065Z,32.76
2018-03-21T04:34:42.801Z,30.19
2018-03-21T04:37:11.485Z,31.43
2018-03-21T04:39:40.119Z,33.82
2018-03-21T04:42:09.586Z,34.81
2018-03-21T04:44:38.304Z,34.56
2018-03-21T04:47:08.077Z,32.58
2018-03-21T04:49:36.760Z,31.57
2018-03-21T04:52:05.408Z,31.34
2018-03-21T04:54:34.130Z,31.42
2018-03-21T04:57:03.069Z,33.67
2018-03-21T04:59:32.538Z,33.72
2018-03-21T05:02:01.212Z,34.55
2018-03-21T05:04:30.102Z,31.55
2018-03-21T05:06:58.788Z,30.53
2018-03-21T05:09:27.474Z,32.21
2018-03-21T05:11:56.466Z,33.29
2018-03-21T05:14:25.095Z,34.81
2018-03-21T05:16:54.562Z,35.38
2018-03-21T05:19:23.555Z,36.23
2018-03-21T05:21:53.164Z,37.38
2018-03-21T05:24:21.918Z,35.73
2018-03-21T05:26:51.407Z,35.38
2018-03-21T05:29:20.856Z,39.98
2018-03-21T05:31:49.432Z,40.48
2018-03-21T05:34:18.266Z,41.67
2018-03-21T05:36:47.729Z,40.81
2018-03-21T05:39:16.370Z,41.68
2018-03-21T05:41:45.872Z,41.06
2018-03-21T05:44:14.606Z,41.14
2018-03-21T05:46:43.252Z,43.23
2018-03-21T05:49:13.169Z,42.83
2018-03-21T05:51:41.892Z,43.49
2018-03-21T05:54:10.576Z,40.20
2018-03-21T05:56:39.309Z,39.79
2018-03-21T05:59:07.886Z,41.30
2018-03-21T06:01:36.433Z,40.28
2018-03-21T06:04:05.354Z,40.62
2018-03-21T06:06:33.903Z,43.44
2018-03-21T06:09:02.476Z,43.01
2018-03-21T06:11:31.076Z,40.76
2018-03-21T06:13:59.631Z,42.19
2018-03-21T06:16:28.953Z,40.91
2018-03-21T06:18:57.654Z,43.95
2018-03-21T06:21:26.375Z,41.02
2018-03-21T06:23:54.934Z,44.02
2018-03-21T06:26:23.538Z,43.43
2018-03-21T06:28:52.084Z,43.55
2018-03-21T06:31:20.629Z,39.05
2018-03-21T06:33:50.100Z,37.97
2018-03-21T06:36:18.664Z,35.72
2018-03-21T06:38:47.241Z,38.03
2018-03-21T06:41:15.840Z,39.42
2018-03-21T06:43:44.398Z,37.21
2018-03-21T06:46:12.953Z,37.18
2018-03-21T06:48:41.985Z,33.78
2018-03-21T06:51:10.671Z,33.84
2018-03-21T06:53:39.357Z,33.15
2018-03-21T06:56:08.141Z,33.36
2018-03-21T06:58:36.827Z,37.12
2018-03-21T07:01:05.377Z,39.73
2018-03-21T07:03:33.988Z,39.08
2018-03-21T07:06:02.542Z,40.66
2018-03-21T07:08:31.215Z,36.91
2018-03-21T07:11:00.182Z,39.01
2018-03-21T07:13:51.120Z,37.30
2018-03-21T07:16:38.485Z,37.22
2018-03-21T07:19:07.133Z,37.62
2018-03-21T07:21:35.857Z,41.20
2018-03-21T07:24:04.507Z,38.76
2018-03-21T07:26:33.186Z,40.15
2018-03-21T07:29:01.829Z,38.05
2018-03-21T07:31:30.871Z,38.99
2018-03-21T07:33:59.425Z,40.14
2018-03-21T07:36:28.894Z,41.47
2018-03-21T07:38:57.888Z,38.18
2018-03-21T07:41:26.577Z,39.92
2018-03-21T07:43:55.259Z,38.75
2018-03-21T07:46:25.074Z,38.22
2018-03-21T07:48:53.653Z,37.28
2018-03-21T07:51:22.348Z,39.01
2018-03-21T07:53:51.033Z,40.68
2018-03-21T07:56:19.718Z,38.44
2018-03-21T07:58:48.711Z,38.52
2018-03-21T08:01:17.485Z,40.20
2018-03-21T08:03:46.130Z,35.41
2018-03-21T08:06:15.454Z,38.07
2018-03-21T08:08:44.372Z,35.95
2018-03-21T08:11:12.924Z,34.70
2018-03-21T08:13:41.473Z,36.82
2018-03-21T08:16:10.853Z,38.51
2018-03-21T08:18:39.404Z,37.55
2018-03-21T08:21:07.961Z,34.88
2018-03-21T08:23:36.561Z,36.88
2018-03-21T08:26:05.141Z,36.99
2018-03-21T08:28:33.693Z,33.82
2018-03-21T08:31:03.062Z,33.79
2018-03-21T08:33:31.618Z,34.82
2018-03-21T08:36:00.202Z,35.97
2018-03-21T08:38:28.950Z,38.73
2018-03-21T08:40:58.269Z,39.62
2018-03-21T08:43:26.870Z,42.27
2018-03-21T08:45:55.665Z,40.63
2018-03-21T08:48:24.222Z,39.42
2018-03-21T08:50:52.769Z,39.12
2018-03-21T08:53:21.706Z,41.61
2018-03-21T08:55:50.264Z,39.03
2018-03-21T08:58:19.585Z,42.32
2018-03-21T09:00:48.581Z,41.50
2018-03-21T09:03:17.202Z,39.26
2018-03-21T09:05:45.758Z,37.84
2018-03-21T09:08:15.186Z,36.50
2018-03-21T09:10:43.736Z,38.07
2018-03-21T09:13:12.283Z,36.77
2018-03-21T09:15:41.113Z,40.35
2018-03-21T09:18:09.669Z,42.02
2018-03-21T09:20:38.222Z,38.98
2018-03-21T09:23:07.588Z,37.38
2018-03-21T09:25:36.141Z,39.18
2018-03-21T09:28:04.693Z,37.36
2018-03-21T09:30:34.251Z,40.31
2018-03-21T09:33:02.806Z,39.59
2018-03-21T09:35:31.356Z,37.73
2018-03-21T09:38:00.726Z,39.20
2018-03-21T09:40:29.280Z,41.37
2018-03-21T09:42:57.842Z,41.49
2018-03-21T09:45:26.438Z,39.89
2018-03-21T09:47:54.998Z,39.56
2018-03-21T09:50:24.317Z,37.49
2018-03-21T09:52:53.133Z,37.51
2018-03-21T09:55:21.683Z,36.07
2018-03-21T09:57:50.242Z,38.27
2018-03-21T10:00:19.807Z,34.37
2018-03-21T10:02:48.362Z,36.80
2018-03-21T10:05:16.917Z,36.08
2018-03-21T10:07:46.586Z,33.19
2018-03-21T10:10:15.140Z,31.23
2018-03-21T10:12:43.697Z,32.03
2018-03-21T10:15:13.101Z,31.33
2018-03-21T10:17:42.422Z,28.67
2018-03-21T10:20:10.972Z,32.18
2018-03-21T10:22:39.573Z,31.67
2018-03-21T10:25:08.129Z,29.42
2018-03-21T10:27:36.684Z,28.32
2018-03-21T10:30:05.476Z,29.98
2018-03-21T10:32:34.065Z,31.24
2018-03-21T10:35:02.622Z,32.20
2018-03-21T10:37:31.233Z,32.77
2018-03-21T10:39:59.790Z,33.39
2018-03-21T10:42:29.109Z,34.62
2018-03-21T10:44:57.755Z,33.60
2018-03-21T10:47:27.133Z,29.69
2018-03-21T10:49:55.824Z,28.75
2018-03-21T10:52:24.766Z,31.24
2018-03-21T10:54:54.092Z,30.21
2018-03-21T10:57:22.653Z,30.66
2018-03-21T10:59:51.258Z,29.98
2018-03-21T11:02:19.891Z,28.37
2018-03-21T11:04:48.444Z,31.44
2018-03-21T11:07:19.692Z,29.88
2018-03-21T11:09:48.249Z,32.03
2018-03-21T11:12:16.814Z,31.74
2018-03-21T11:14:45.650Z,33.03
2018-03-21T11:17:14.197Z,32.30
2018-03-21T11:19:42.757Z,33.47
2018-03-21T11:22:12.120Z,32.72
2018-03-21T11:24:40.673Z,33.54
2018-03-21T11:27:09.222Z,33.34
2018-03-21T11:29:38.988Z,32.97
2018-03-21T11:32:07.537Z,34.12
2018-03-21T11:34:36.088Z,34.42
2018-03-21T11:37:04.689Z,34.45
2018-03-21T11:39:33.243Z,34.23
2018-03-21T11:42:01.830Z,35.77
2018-03-21T11:44:30.439Z,35.71
2018-03-21T11:46:59.178Z,36.83
2018-03-21T11:49:27.762Z,36.15
2018-03-21T11:51:56.358Z,36.63
2018-03-21T11:54:25.134Z,36.51
2018-03-21T11:56:53.715Z,38.35
2018-03-21T11:59:22.400Z,37.97
2018-03-21T12:01:51.093Z,37.05
2018-03-21T12:04:19.710Z,37.75
2018-03-21T12:06:49.484Z,37.30
2018-03-21T12:09:18.124Z,35.64
2018-03-21T12:11:46.856Z,36.26
2018-03-21T12:14:15.851Z,36.22
2018-03-21T12:16:44.633Z,35.93
2018-03-21T12:19:13.226Z,37.08
2018-03-21T12:21:42.138Z,35.93
2018-03-21T12:24:10.899Z,34.88
2018-03-21T12:26:39.585Z,34.46
2018-03-21T12:29:08.517Z,34.58
2018-03-21T12:31:37.933Z,34.78
2018-03-21T12:34:06.662Z,34.12
2018-03-21T12:36:35.619Z,34.08
2018-03-21T12:39:04.450Z,37.50
2018-03-21T12:41:33.137Z,36.48
2018-03-21T12:44:02.224Z,32.51
2018-03-21T12:46:30.914Z,32.34
2018-03-21T12:48:59.476Z,31.92
2018-03-21T12:51:28.289Z,31.88
2018-03-21T12:53:57.021Z,34.42
2018-03-21T12:56:25.784Z,31.00
2018-03-21T12:58:54.804Z,30.66
2018-03-21T13:01:24.258Z,30.35
2018-03-21T13:03:52.944Z,33.44
2018-03-21T13:06:21.909Z,32.46
2018-03-21T13:08:50.649Z,29.54
2018-03-21T13:11:20.233Z,27.75
2018-03-21T13:13:49.108Z,30.48
2018-03-21T13:16:17.719Z,31.47
2018-03-21T13:18:47.213Z,30.99
2018-03-21T13:21:16.202Z,27.73
2018-03-21T13:23:44.888Z,28.11
2018-03-21T13:26:13.464Z,29.16
2018-03-21T13:28:42.467Z,27.85
2018-03-21T13:31:11.111Z,25.92
2018-03-21T13:33:39.839Z,28.78
2018-03-21T13:36:08.576Z,31.98
2018-03-21T13:38:37.310Z,28.06
2018-03-21T13:41:05.996Z,29.71
2018-03-21T13:43:34.881Z,29.53
2018-03-21T13:46:03.570Z,28.90
2018-03-21T13:48:32.317Z,30.24
2018-03-21T13:51:01.051Z,27.57
2018-03-21T13:53:29.753Z,31.32
2018-03-21T13:55:59.240Z,31.97
2018-03-21T13:58:28.024Z,32.53
2018-03-21T14:00:56.710Z,29.16
2018-03-21T14:03:25.349Z,27.68
2018-03-21T14:05:54.239Z,26.98
2018-03-21T14:08:23.690Z,29.00
2018-03-21T14:10:52.277Z,27.71
2018-03-21T14:13:21.066Z,27.79
2018-03-21T14:15:49.624Z,27.77
2018-03-21T14:18:18.382Z,27.32
2018-03-21T14:20:47.026Z,29.17
2018-03-21T14:23:15.751Z,27.31
2018-03-21T14:25:45.203Z,26.38
2018-03-21T14:28:14.158Z,31.40
2018-03-21T14:30:42.882Z,35.17
2018-03-21T14:33:11.515Z,35.21
2018-03-21T14:35:40.889Z,32.28
2018-03-21T14:38:09.648Z,33.95
2018-03-21T14:40:38.241Z,34.71
2018-03-21T14:43:06.926Z,35.58
2018-03-21T14:45:36.433Z,31.41
2018-03-21T14:48:05.218Z,29.39
2018-03-21T14:50:33.914Z,28.46
2018-03-21T14:53:02.590Z,27.48
2018-03-21T14:55:31.141Z,30.42
2018-03-21T14:57:59.870Z,35.53
2018-03-21T15:00:28.432Z,31.88
2018-03-21T15:02:57.079Z,31.58
2018-03-21T15:05:26.550Z,32.17
2018-03-21T15:07:55.220Z,31.36
2018-03-21T15:10:23.809Z,34.08
2018-03-21T15:12:52.750Z,34.61
2018-03-21T15:15:22.200Z,32.24
2018-03-21T15:17:50.887Z,33.56
2018-03-21T15:20:19.728Z,33.46
2018-03-21T15:22:48.465Z,33.43
2018-03-21T15:25:17.151Z,33.77
2018-03-21T15:27:46.341Z,33.41
2018-03-21T15:30:15.140Z,33.96
2018-03-21T15:32:43.807Z,31.44
2018-03-21T15:35:12.603Z,31.68
2018-03-21T15:37:41.152Z,32.16
2018-03-21T15:40:09.874Z,33.48
2018-03-21T15:42:38.566Z,32.40
2018-03-21T15:45:07.346Z,33.13
2018-03-21T15:47:36.032Z,34.20
2018-03-21T15:50:04.773Z,32.54
2018-03-21T15:52:33.502Z,30.19
2018-03-21T15:55:02.188Z,30.39
2018-03-21T15:57:30.972Z,31.68
2018-03-21T15:59:59.620Z,30.65
2018-03-21T16:02:28.344Z,28.87
2018-03-21T16:04:57.305Z,27.82
2018-03-21T16:07:25.925Z,28.35
2018-03-21T16:09:54.473Z,27.44
2018-03-21T16:12:23.089Z,28.45
2018-03-21T16:14:51.776Z,28.16
2018-03-21T16:17:20.420Z,28.62
2018-03-21T16:19:49.037Z,32.38
2018-03-21T16:22:17.588Z,33.62
2018-03-21T16:24:46.319Z,33.90
2018-03-21T16:27:15.993Z,31.54
2018-03-21T16:29:44.670Z,29.41
2018-03-21T16:32:13.304Z,28.03
2018-03-21T16:34:42.772Z,29.79
2018-03-21T16:39:56.798Z,28.58
2018-03-21T16:42:25.504Z,28.34
2018-03-21T16:44:54.091Z,29.09
2018-03-21T16:47:23.247Z,30.07
2018-03-21T16:49:51.978Z,30.64
2018-03-21T16:52:20.660Z,31.13
2018-03-21T16:54:49.451Z,31.74
2018-03-21T16:57:18.017Z,31.67
2018-03-21T16:59:46.728Z,30.27
2018-03-21T17:02:15.882Z,29.74
2018-03-21T17:04:44.551Z,30.17
2018-03-21T17:07:13.283Z,31.26
2018-03-21T17:09:42.179Z,32.57
2018-03-21T17:12:10.744Z,31.22
2018-03-21T17:14:39.342Z,30.82
2018-03-21T17:17:08.190Z,30.95
2018-03-21T17:19:36.921Z,30.59
2018-03-21T17:22:05.627Z,30.47
2018-03-21T17:24:34.284Z,30.88
2018-03-21T17:27:02.982Z,32.07
2018-03-21T17:29:31.669Z,31.62
2018-03-21T17:32:00.353Z,31.59
2018-03-21T17:34:29.036Z,32.01
2018-03-21T17:36:57.617Z,33.40
2018-03-21T17:39:26.354Z,33.82
2018-03-21T17:41:55.710Z,32.81
2018-03-21T17:44:24.413Z,32.58
2018-03-21T17:46:53.490Z,33.63
2018-03-21T17:49:22.126Z,32.97
2018-03-21T17:51:50.856Z,32.65
2018-03-21T17:54:19.854Z,31.67
2018-03-21T17:56:48.437Z,31.82
2018-03-21T17:59:17.123Z,32.89
2018-03-21T18:01:45.812Z,31.95
2018-03-21T18:04:14.518Z,32.36
2018-03-21T18:06:44.007Z,32.24
2018-03-21T18:09:12.996Z,31.95
2018-03-21T18:11:41.572Z,31.18
2018-03-21T18:14:10.258Z,30.97
2018-03-21T18:16:39.423Z,31.20
2018-03-21T18:19:08.115Z,30.41
2018-03-21T18:21:36.780Z,31.21
2018-03-21T18:24:05.882Z,31.11
2018-03-21T18:26:34.664Z,32.05
2018-03-21T18:29:03.349Z,31.66
2018-03-21T18:31:32.451Z,31.31
2018-03-21T18:34:01.022Z,31.85
2018-03-21T18:36:29.614Z,32.64
2018-03-21T18:38:58.602Z,31.80
2018-03-21T18:41:27.158Z,31.78
2018-03-21T18:43:55.723Z,31.62
2018-03-21T18:46:24.459Z,32.61
2018-03-21T18:48:53.019Z,32.08
2018-03-21T18:51:21.574Z,32.45
2018-03-21T18:53:50.941Z,31.90
2018-03-21T18:56:19.616Z,30.91
2018-03-21T18:58:48.302Z,32.66
2018-03-21T19:01:17.087Z,32.45
2018-03-21T19:03:45.677Z,30.91
2018-03-21T19:06:14.360Z,31.14
2018-03-21T19:08:43.454Z,30.97
2018-03-21T19:11:12.039Z,29.89
2018-03-21T19:13:40.655Z,30.19
2018-03-21T19:16:10.380Z,30.94
2018-03-21T19:18:39.801Z,30.86
2018-03-21T19:21:08.516Z,31.87
2018-03-21T19:23:37.417Z,33.82
2018-03-21T19:26:05.997Z,35.46
2018-03-21T19:28:34.557Z,37.23
2018-03-21T19:31:03.175Z,35.99
2018-03-21T19:33:31.741Z,38.24
2018-03-21T19:36:00.302Z,39.28
2018-03-21T19:38:29.370Z,36.89
2018-03-21T19:40:58.787Z,39.47
2018-03-21T19:43:27.511Z,38.55
2018-03-21T19:45:56.454Z,38.12
2018-03-21T19:48:25.288Z,38.72
2018-03-21T19:50:54.004Z,40.91
2018-03-21T19:53:22.925Z,38.89
2018-03-21T19:55:51.619Z,39.02
2018-03-21T19:58:20.338Z,37.73
2018-03-21T20:00:49.134Z,37.52
2018-03-21T20:03:17.820Z,37.37
2018-03-21T20:05:46.483Z,37.38
2018-03-21T20:08:16.006Z,35.86
2018-03-21T20:10:44.652Z,39.20
2018-03-21T20:13:13.376Z,40.45
2018-03-21T20:15:42.170Z,37.88
2018-03-21T20:18:11.164Z,40.13
2018-03-21T20:20:39.849Z,37.92
2018-03-21T20:23:08.817Z,38.12
2018-03-21T20:25:37.528Z,36.62
2018-03-21T20:28:06.313Z,36.20
2018-03-21T20:30:35.047Z,34.41
2018-03-21T20:33:04.401Z,33.69
2018-03-21T20:35:33.086Z,32.79
2018-03-21T20:38:01.775Z,31.94
2018-03-21T20:40:30.519Z,31.94
2018-03-21T20:42:59.250Z,33.40
2018-03-21T20:45:27.930Z,33.64
2018-03-21T20:47:56.625Z,37.72
2018-03-21T20:50:25.307Z,35.21
2018-03-21T20:52:54.159Z,36.75
2018-03-21T20:55:22.880Z,36.59
2018-03-21T20:57:51.521Z,37.75
2018-03-21T21:00:20.349Z,37.70
2018-03-21T21:02:49.044Z,38.01
2018-03-21T21:05:18.223Z,37.17
2018-03-21T21:07:46.929Z,37.88
2018-03-21T21:10:15.716Z,41.01
2018-03-21T21:12:44.410Z,39.49
2018-03-21T21:15:13.145Z,41.04
2018-03-21T21:17:41.811Z,40.66
2018-03-21T21:20:11.277Z,37.11
2018-03-21T21:22:40.267Z,38.46
2018-03-21T21:25:08.858Z,37.45
2018-03-21T21:27:37.531Z,37.27
2018-03-21T21:30:06.531Z,37.32
2018-03-21T21:32:35.094Z,37.54
2018-03-21T21:35:03.735Z,37.55
2018-03-21T21:37:33.456Z,37.87
2018-03-21T21:40:02.876Z,37.65
2018-03-21T21:42:31.594Z,37.38
2018-03-21T21:45:00.618Z,35.75
2018-03-21T21:47:30.101Z,37.19
2018-03-21T21:49:58.663Z,35.87
2018-03-21T21:52:27.676Z,37.14
2018-03-21T21:54:56.363Z,35.93
2018-03-21T21:57:25.146Z,35.95
2018-03-21T21:59:53.837Z,36.13
2018-03-21T22:02:22.620Z,36.95
2018-03-21T22:04:51.302Z,35.89
2018-03-21T22:07:20.295Z,36.61
2018-03-21T22:09:48.962Z,36.43
2018-03-21T22:12:23.358Z,35.82
2018-03-21T22:14:51.859Z,35.22
2018-03-21T22:17:20.351Z,36.65
2018-03-21T22:19:49.129Z,36.61
2018-03-21T22:22:17.635Z,36.43
2018-03-21T22:24:46.124Z,36.29
2018-03-21T22:27:14.841Z,37.36
2018-03-21T22:29:43.327Z,36.62
2018-03-21T22:32:12.587Z,37.42
2018-03-21T22:34:41.128Z,35.93
2018-03-21T22:37:10.383Z,36.35
2018-03-21T22:39:38.861Z,37.36
2018-03-21T22:42:07.405Z,36.39
2018-03-21T22:44:35.895Z,37.07
2018-03-21T22:47:04.499Z,36.23
2018-03-21T22:49:33.483Z,35.44
2018-03-21T22:52:01.981Z,35.90
2018-03-21T22:54:30.647Z,34.92
2018-03-21T22:56:59.799Z,34.80
2018-03-21T22:59:29.048Z,34.69
2018-03-21T23:01:57.685Z,34.32
2018-03-21T23:04:27.344Z,36.44
2018-03-21T23:06:56.030Z,37.42
2018-03-21T23:09:24.664Z,36.43
2018-03-21T23:11:54.130Z,35.62
2018-03-21T23:14:22.799Z,35.07
2018-03-21T23:16:51.485Z,35.98
2018-03-21T23:19:20.281Z,36.30
2018-03-21T23:21:48.926Z,37.83
2018-03-21T23:24:17.647Z,36.03
2018-03-21T23:26:48.110Z,36.40
2018-03-21T23:29:17.581Z,36.42
2018-03-21T23:31:46.267Z,36.41
2018-03-21T23:34:15.113Z,35.81
2018-03-21T23:36:43.846Z,36.66
2018-03-21T23:39:12.533Z,37.01
2018-03-21T23:41:41.270Z,36.69
2018-03-21T23:44:10.004Z,36.37
2018-03-21T23:46:39.556Z,36.79
2018-03-21T23:49:09.021Z,35.98
2018-03-21T23:51:37.695Z,35.96
2018-03-21T23:54:06.380Z,34.98
2018-03-21T23:56:35.176Z,36.57
2018-03-21T23:59:03.862Z,36.68
